createdAt,value
2019-03-16T00:00:44.190Z,98316.80
2019-03-16T00:03:10.790Z,98321.66
2019-03-16T00:05:37.516Z,98329.78
2019-03-16T00:08:04.388Z,98333.78
2019-03-16T00:10:30.945Z,98329.03
2019-03-16T00:12:57.545Z,98337.98
2019-03-16T00:15:24.287Z,98339.48
2019-03-16T00:17:50.946Z,98343.56
2019-03-16T00:20:17.693Z,98338.99
2019-03-16T00:22:44.356Z,98339.02
2019-03-16T00:25:11.147Z,98348.36
2019-03-16T00:27:38.419Z,98353.91
2019-03-16T00:30:11.339Z,98340.90
2019-03-16T00:32:38.235Z,98341.16
2019-03-16T00:35:05.150Z,98327.23
2019-03-16T00:37:31.918Z,98319.05
2019-03-16T00:39:58.525Z,98319.31
2019-03-16T00:42:25.189Z,98328.28
2019-03-16T00:44:51.866Z,98329.75
2019-03-16T00:47:18.653Z,98322.49
2019-03-16T00:49:45.295Z,98326.53
2019-03-16T00:52:11.863Z,98312.96
2019-03-16T00:54:38.544Z,98322.69
2019-03-16T00:57:05.634Z,98330.51
2019-03-16T00:59:32.295Z,98325.39
2019-03-16T01:01:58.934Z,98331.91
2019-03-16T01:04:25.575Z,98330.29
2019-03-16T01:06:52.341Z,98333.38
2019-03-16T01:09:19.327Z,98334.84
2019-03-16T01:11:46.084Z,98318.27
2019-03-16T01:14:12.646Z,98323.45
2019-03-16T01:16:39.293Z,98314.83
2019-03-16T01:19:05.952Z,98320.72
2019-03-16T01:21:32.527Z,98320.72
2019-03-16T01:23:59.088Z,98317.08
2019-03-16T01:26:25.716Z,98310.56
2019-03-16T01:28:52.430Z,98312.89
2019-03-16T01:31:19.255Z,98319.82
2019-03-16T01:33:45.868Z,98318.75
2019-03-16T01:36:12.438Z,98313.83
2019-03-16T01:38:39.022Z,98319.23
2019-03-16T01:41:05.607Z,98313.69
2019-03-16T01:43:32.267Z,98309.33
2019-03-16T01:45:58.856Z,98312.77
2019-03-16T01:48:25.410Z,98309.67
2019-03-16T01:50:51.989Z,98313.17
2019-03-16T01:53:18.672Z,98305.27
2019-03-16T01:55:45.370Z,98316.48
2019-03-16T01:58:12.103Z,98306.46
2019-03-16T02:00:38.801Z,98306.08
2019-03-16T02:03:05.413Z,98311.42
2019-03-16T02:05:32.094Z,98318.83
2019-03-16T02:07:58.735Z,98311.84
2019-03-16T02:10:25.891Z,98313.11
2019-03-16T02:12:52.455Z,98320.54
2019-03-16T02:16:15.734Z,98305.38
2019-03-16T02:18:42.378Z,98297.96
2019-03-16T02:21:09.088Z,98309.07
2019-03-16T02:23:35.760Z,98313.56
2019-03-16T02:26:02.463Z,98307.27
2019-03-16T02:28:29.079Z,98306.41
2019-03-16T02:30:55.681Z,98300.80
2019-03-16T02:33:23.796Z,98296.42
2019-03-16T02:35:50.366Z,98304.83
2019-03-16T02:38:17.001Z,98293.77
2019-03-16T02:40:43.648Z,98286.18
2019-03-16T02:43:10.326Z,98286.59
2019-03-16T02:45:36.881Z,98291.44
2019-03-16T02:48:04.203Z,98294.23
2019-03-16T02:50:30.785Z,98287.17
2019-03-16T02:52:57.352Z,98293.75
2019-03-16T02:56:07.381Z,98289.83
2019-03-16T02:58:34.025Z,98291.78
2019-03-16T03:01:01.849Z,98285.24
2019-03-16T03:03:30.198Z,98302.13
2019-03-16T03:05:57.071Z,98285.43
2019-03-16T03:08:23.605Z,98298.41
2019-03-16T03:10:50.410Z,98283.73
2019-03-16T03:13:17.017Z,98285.91
2019-03-16T03:15:43.846Z,98272.45
2019-03-16T03:18:10.489Z,98286.45
2019-03-16T03:20:37.258Z,98276.09
2019-03-16T03:23:03.952Z,98272.55
2019-03-16T03:25:30.476Z,98270.41
2019-03-16T03:27:57.155Z,98271.81
2019-03-16T03:30:23.871Z,98265.53
2019-03-16T03:32:50.582Z,98277.13
2019-03-16T03:35:17.176Z,98294.03
2019-03-16T03:37:45.036Z,98283.27
2019-03-16T03:40:11.868Z,98275.41
2019-03-16T03:42:38.878Z,98281.41
2019-03-16T03:45:09.873Z,98265.44
2019-03-16T03:47:36.628Z,98260.39
2019-03-16T03:50:08.647Z,98278.06
2019-03-16T03:52:35.303Z,98289.16
2019-03-16T03:55:05.144Z,98288.88
2019-03-16T03:57:32.258Z,98289.71
2019-03-16T03:59:59.189Z,98293.55
2019-03-16T04:02:26.110Z,98304.02
2019-03-16T04:04:52.895Z,98289.83
2019-03-16T04:07:20.580Z,98300.27
2019-03-16T04:09:47.461Z,98300.56
2019-03-16T04:12:14.117Z,98292.90
2019-03-16T04:14:40.660Z,98296.44
2019-03-16T04:17:07.357Z,98281.30
2019-03-16T04:19:33.927Z,98296.55
2019-03-16T04:22:00.699Z,98297.38
2019-03-16T04:24:27.563Z,98297.58
2019-03-16T04:26:57.254Z,98313.08
2019-03-16T04:29:25.236Z,98299.14
2019-03-16T04:31:51.912Z,98325.95
2019-03-16T04:34:28.345Z,98308.13
2019-03-16T04:36:47.061Z,98333.16
2019-03-16T04:39:13.629Z,98325.66
2019-03-16T04:41:40.209Z,98341.84
2019-03-16T04:44:06.904Z,98333.36
2019-03-16T04:46:33.644Z,98356.51
2019-03-16T04:49:00.300Z,98357.33
2019-03-16T04:51:28.232Z,98360.33
2019-03-16T04:53:54.815Z,98376.75
2019-03-16T04:56:21.379Z,98379.36
2019-03-16T04:58:47.947Z,98380.33
2019-03-16T05:01:14.725Z,98392.31
2019-03-16T05:03:41.351Z,98399.44
2019-03-16T05:06:08.124Z,98398.52
2019-03-16T05:08:34.661Z,98405.55
2019-03-16T05:11:01.303Z,98408.91
2019-03-16T05:13:27.871Z,98425.44
2019-03-16T05:15:54.511Z,98415.80
2019-03-16T05:18:21.397Z,98421.46
2019-03-16T05:20:47.946Z,98432.72
2019-03-16T05:23:14.521Z,98426.86
2019-03-16T05:25:41.176Z,98415.94
2019-03-16T05:28:07.842Z,98424.58
2019-03-16T05:30:34.395Z,98447.20
2019-03-16T05:33:01.344Z,98454.56
2019-03-16T05:35:27.908Z,98448.63
2019-03-16T05:37:54.516Z,98461.32
2019-03-16T05:40:21.310Z,98484.55
2019-03-16T05:42:48.135Z,98481.58
2019-03-16T05:45:15.060Z,98506.45
2019-03-16T05:47:41.680Z,98498.30
2019-03-16T05:51:04.650Z,98510.70
2019-03-16T05:53:31.346Z,98519.99
2019-03-16T05:55:58.104Z,98511.64
2019-03-16T05:58:24.666Z,98508.38
2019-03-16T06:00:51.253Z,98525.47
2019-03-16T06:03:19.340Z,98536.22
2019-03-16T06:05:45.968Z,98533.91
2019-03-16T06:08:15.616Z,98557.87
2019-03-16T06:10:42.236Z,98560.22
2019-03-16T06:13:09.627Z,98580.11
2019-03-16T06:15:36.194Z,98592.51
2019-03-16T06:18:06.146Z,98588.40
2019-03-16T06:20:32.846Z,98594.64
2019-03-16T06:22:59.399Z,98618.62
2019-03-16T06:25:25.968Z,98621.22
2019-03-16T06:27:52.547Z,98629.43
2019-03-16T06:30:20.833Z,98641.26
2019-03-16T06:32:47.687Z,98639.74
2019-03-16T06:35:24.307Z,98628.91
2019-03-16T06:37:42.837Z,98645.98
2019-03-16T06:40:10.481Z,98655.68
2019-03-16T06:42:37.102Z,98667.80
2019-03-16T06:45:07.512Z,98678.89
2019-03-16T06:47:34.107Z,98679.65
2019-03-16T06:50:00.674Z,98678.03
2019-03-16T06:52:30.536Z,98686.24
2019-03-16T06:54:57.237Z,98693.00
2019-03-16T06:57:24.943Z,98700.65
2019-03-16T06:59:51.693Z,98700.16
2019-03-16T07:02:18.558Z,98708.13
2019-03-16T07:04:45.205Z,98707.88
2019-03-16T07:07:11.854Z,98708.14
2019-03-16T07:09:38.412Z,98713.54
2019-03-16T07:12:05.032Z,98721.52
2019-03-16T07:14:32.839Z,98724.53
2019-03-16T07:17:02.344Z,98735.61
2019-03-16T07:19:28.156Z,98753.79
2019-03-16T07:21:54.803Z,98755.50
2019-03-16T07:24:21.387Z,98759.80
2019-03-16T07:27:44.640Z,98775.88
2019-03-16T07:30:13.156Z,98784.91
2019-03-16T07:32:40.008Z,98784.55
2019-03-16T07:35:07.799Z,98781.00
2019-03-16T07:37:34.465Z,98794.05
2019-03-16T07:40:03.583Z,98800.07
2019-03-16T07:42:31.387Z,98799.38
2019-03-16T07:45:08.026Z,98810.12
2019-03-16T07:47:28.316Z,98811.00
2019-03-16T07:49:55.041Z,98815.59
2019-03-16T07:52:21.786Z,98817.75
2019-03-16T07:54:48.395Z,98818.52
2019-03-16T07:57:15.004Z,98831.98
2019-03-16T07:59:41.613Z,98832.55
2019-03-16T08:02:08.334Z,98838.23
2019-03-16T08:04:34.937Z,98843.46
2019-03-16T08:07:01.557Z,98853.85
2019-03-16T08:09:28.251Z,98847.40
2019-03-16T08:11:54.966Z,98865.08
2019-03-16T08:14:22.163Z,98869.94
2019-03-16T08:16:48.993Z,98874.16
2019-03-16T08:19:15.536Z,98889.61
2019-03-16T08:21:42.124Z,98890.46
2019-03-16T08:24:09.022Z,98891.69
2019-03-16T08:26:35.584Z,98895.86
2019-03-16T08:29:02.632Z,98903.08
2019-03-16T08:31:29.316Z,98906.80
2019-03-16T08:33:56.043Z,98906.83
2019-03-16T08:36:22.672Z,98927.45
2019-03-16T08:38:49.258Z,98925.88
2019-03-16T08:41:15.906Z,98923.43
2019-03-16T08:43:42.620Z,98934.67
2019-03-16T08:46:09.360Z,98936.95
2019-03-16T08:48:37.298Z,98939.17
2019-03-16T08:51:04.906Z,98949.64
2019-03-16T08:53:31.856Z,98957.28
2019-03-16T08:55:59.979Z,98968.06
2019-03-16T08:58:26.753Z,98972.21
2019-03-16T09:00:53.564Z,98970.14
2019-03-16T09:03:20.227Z,98984.81
2019-03-16T09:05:46.842Z,98988.06
2019-03-16T09:08:14.729Z,99002.53
2019-03-16T09:10:41.502Z,98999.91
2019-03-16T09:13:08.071Z,99003.44
2019-03-16T09:15:34.881Z,99003.52
2019-03-16T09:18:02.279Z,99009.98
2019-03-16T09:20:29.146Z,99012.75
2019-03-16T09:22:55.772Z,99023.05
2019-03-16T09:25:23.476Z,99028.05
2019-03-16T09:27:53.503Z,99037.05
2019-03-16T09:30:20.726Z,99041.05
2019-03-16T09:32:47.385Z,99047.34
2019-03-16T09:35:14.167Z,99042.31
2019-03-16T09:37:41.001Z,99045.92
2019-03-16T09:40:09.350Z,99056.14
2019-03-16T09:42:36.253Z,99064.94
2019-03-16T09:45:06.159Z,99066.14
2019-03-16T09:47:32.909Z,99071.45
2019-03-16T09:49:59.587Z,99071.84
2019-03-16T09:52:26.214Z,99086.31
2019-03-16T09:54:52.790Z,99097.09
2019-03-16T09:57:19.628Z,99100.18
2019-03-16T09:59:46.325Z,99112.43
2019-03-16T10:02:12.872Z,99112.24
2019-03-16T10:04:39.641Z,99117.72
2019-03-16T10:07:06.296Z,99130.27
2019-03-16T10:09:33.075Z,99136.06
2019-03-16T10:11:59.764Z,99138.67
2019-03-16T10:14:26.454Z,99140.21
2019-03-16T10:16:53.091Z,99143.27
2019-03-16T10:19:19.937Z,99148.37
2019-03-16T10:21:46.634Z,99156.84
2019-03-16T10:24:13.351Z,99152.08
2019-03-16T10:26:39.981Z,99158.08
2019-03-16T10:29:06.613Z,99158.77
2019-03-16T10:31:33.366Z,99178.19
2019-03-16T10:34:00.058Z,99168.69
2019-03-16T10:36:26.610Z,99173.39
2019-03-16T10:38:53.595Z,99180.09
2019-03-16T10:41:20.250Z,99177.48
2019-03-16T10:43:47.068Z,99184.78
2019-03-16T10:46:13.848Z,99187.79
2019-03-16T10:48:40.473Z,99190.20
2019-03-16T10:51:07.262Z,99193.89
2019-03-16T10:53:34.004Z,99203.75
2019-03-16T10:56:00.695Z,99199.19
2019-03-16T10:58:27.314Z,99208.67
2019-03-16T11:00:53.953Z,99216.52
2019-03-16T11:03:20.668Z,99210.59
2019-03-16T11:05:47.541Z,99223.85
2019-03-16T11:08:14.464Z,99221.70
2019-03-16T11:10:41.990Z,99226.39
2019-03-16T11:13:08.658Z,99225.77
2019-03-16T11:15:35.275Z,99232.50
2019-03-16T11:18:02.015Z,99234.25
2019-03-16T11:21:25.983Z,99236.95
2019-03-16T11:23:53.785Z,99235.88
2019-03-16T11:26:20.694Z,99236.80
2019-03-16T11:28:47.238Z,99246.03
2019-03-16T11:31:13.846Z,99241.98
2019-03-16T11:33:40.468Z,99247.49
2019-03-16T11:36:07.123Z,99246.42
2019-03-16T11:38:33.758Z,99251.58
2019-03-16T11:41:00.385Z,99257.67
2019-03-16T11:43:26.971Z,99255.43
2019-03-16T11:45:53.570Z,99261.55
2019-03-16T11:48:20.545Z,99261.13
2019-03-16T11:50:48.976Z,99277.06
2019-03-16T11:53:15.791Z,99269.98
2019-03-16T11:55:42.415Z,99283.39
2019-03-16T11:58:09.038Z,99276.86
2019-03-16T12:00:35.763Z,99285.50
2019-03-16T12:03:02.540Z,99288.48
2019-03-16T12:05:29.204Z,99287.44
2019-03-16T12:07:55.856Z,99306.06
2019-03-16T12:10:22.616Z,99309.33
2019-03-16T12:12:49.263Z,99312.55
2019-03-16T12:15:15.918Z,99320.81
2019-03-16T12:17:42.527Z,99327.28
2019-03-16T12:20:12.881Z,99320.80
2019-03-16T12:22:39.500Z,99340.63
2019-03-16T12:25:06.512Z,99340.86
2019-03-16T12:27:33.156Z,99338.32
2019-03-16T12:29:59.782Z,99343.55
2019-03-16T12:32:26.556Z,99345.31
2019-03-16T12:34:53.171Z,99344.69
2019-03-16T12:37:19.969Z,99354.43
2019-03-16T12:39:46.561Z,99356.91
2019-03-16T12:42:13.306Z,99355.45
2019-03-16T12:44:39.992Z,99360.81
2019-03-16T12:47:06.566Z,99357.23
2019-03-16T12:49:33.164Z,99363.17
2019-03-16T12:51:59.768Z,99356.67
2019-03-16T12:54:26.866Z,99368.92
2019-03-16T12:56:53.453Z,99370.98
2019-03-16T12:59:20.203Z,99374.23
2019-03-16T13:01:46.862Z,99369.27
2019-03-16T13:04:13.608Z,99367.80
2019-03-16T13:06:40.184Z,99373.23
2019-03-16T13:09:06.924Z,99376.08
2019-03-16T13:11:33.656Z,99376.23
2019-03-16T13:14:00.451Z,99387.58
2019-03-16T13:16:27.096Z,99381.02
2019-03-16T13:18:53.929Z,99385.48
2019-03-16T13:21:20.589Z,99389.11
2019-03-16T13:23:47.520Z,99393.91
2019-03-16T13:26:14.050Z,99386.95
2019-03-16T13:28:40.660Z,99397.52
2019-03-16T13:31:07.281Z,99397.44
2019-03-16T13:33:34.052Z,99391.80
2019-03-16T13:36:00.749Z,99398.66
2019-03-16T13:38:27.500Z,99402.52
2019-03-16T13:40:54.238Z,99410.05
2019-03-16T13:43:21.169Z,99414.10
2019-03-16T13:45:47.974Z,99408.56
2019-03-16T13:48:14.696Z,99416.98
2019-03-16T13:50:41.365Z,99410.11
2019-03-16T13:53:08.508Z,99402.45
2019-03-16T13:55:35.071Z,99401.92
2019-03-16T13:58:01.889Z,99411.93
2019-03-16T14:00:28.737Z,99416.36
2019-03-16T14:02:55.679Z,99413.41
2019-03-16T14:05:22.604Z,99415.36
2019-03-16T14:07:49.464Z,99426.46
2019-03-16T14:10:20.954Z,99417.35
2019-03-16T14:12:47.599Z,99431.02
2019-03-16T14:15:14.421Z,99425.84
2019-03-16T14:17:42.667Z,99427.25
2019-03-16T14:20:13.758Z,99439.50
2019-03-16T14:22:40.491Z,99434.27
2019-03-16T14:25:08.618Z,99433.41
2019-03-16T14:27:35.338Z,99434.66
2019-03-16T14:30:06.439Z,99441.33
2019-03-16T14:32:33.028Z,99440.66
2019-03-16T14:34:59.638Z,99439.97
2019-03-16T14:37:26.827Z,99447.23
2019-03-16T14:39:53.873Z,99450.13
2019-03-16T14:42:20.731Z,99462.45
2019-03-16T14:44:47.496Z,99462.71
2019-03-16T14:47:14.191Z,99474.98
2019-03-16T14:49:41.180Z,99477.19
2019-03-16T14:52:07.940Z,99480.06
2019-03-16T14:54:34.614Z,99480.77
2019-03-16T14:57:02.071Z,99488.44
2019-03-16T14:59:29.015Z,99494.77
2019-03-16T15:01:55.598Z,99497.64
2019-03-16T15:04:22.639Z,99503.02
2019-03-16T15:06:49.260Z,99496.95
2019-03-16T15:09:15.962Z,99489.34
2019-03-16T15:11:42.552Z,99495.90
2019-03-16T15:15:05.265Z,99503.77
2019-03-16T15:17:31.969Z,99512.72
2019-03-16T15:19:58.712Z,99510.64
2019-03-16T15:22:25.477Z,99521.45
2019-03-16T15:24:52.117Z,99526.23
2019-03-16T15:27:20.220Z,99530.02
2019-03-16T15:29:46.810Z,99531.83
2019-03-16T15:32:13.419Z,99535.17
2019-03-16T15:34:40.224Z,99547.73
2019-03-16T15:37:07.366Z,99548.21
2019-03-16T15:39:34.127Z,99551.67
2019-03-16T15:42:00.799Z,99553.86
2019-03-16T15:44:27.620Z,99559.23
2019-03-16T15:46:54.240Z,99565.43
2019-03-16T15:49:21.127Z,99560.34
2019-03-16T15:51:47.701Z,99571.28
2019-03-16T15:54:14.286Z,99578.91
2019-03-16T15:56:41.035Z,99579.00
2019-03-16T15:59:07.611Z,99590.53
2019-03-16T16:01:34.316Z,99579.40
2019-03-16T16:04:00.947Z,99577.36
2019-03-16T16:06:27.604Z,99579.27
2019-03-16T16:08:54.246Z,99585.77
2019-03-16T16:11:21.111Z,99587.61
2019-03-16T16:13:47.740Z,99584.87
2019-03-16T16:16:14.319Z,99582.44
2019-03-16T16:18:41.247Z,99594.95
2019-03-16T16:21:08.099Z,99598.66
2019-03-16T16:23:34.843Z,99593.77
2019-03-16T16:26:01.734Z,99598.46
2019-03-16T16:28:28.570Z,99606.98
2019-03-16T16:31:51.671Z,99604.45
2019-03-16T16:34:19.597Z,99607.01
2019-03-16T16:36:46.172Z,99609.20
2019-03-16T16:39:14.430Z,99610.98
2019-03-16T16:41:41.301Z,99620.23
2019-03-16T16:44:08.056Z,99622.09
2019-03-16T16:46:34.886Z,99614.41
2019-03-16T16:49:01.493Z,99612.77
2019-03-16T16:51:28.241Z,99621.68
2019-03-16T16:53:55.736Z,99622.74
2019-03-16T16:56:22.637Z,99622.16
2019-03-16T16:58:49.807Z,99624.64
2019-03-16T17:01:28.413Z,99633.48
2019-03-16T17:03:45.204Z,99632.40
2019-03-16T17:06:12.138Z,99627.05
2019-03-16T17:08:38.972Z,99634.03
2019-03-16T17:11:06.122Z,99629.70
2019-03-16T17:13:32.839Z,99635.82
2019-03-16T17:15:59.638Z,99648.16
2019-03-16T17:18:26.853Z,99654.38
2019-03-16T17:20:53.535Z,99654.64
2019-03-16T17:23:20.418Z,99654.75
2019-03-16T17:25:47.253Z,99672.16
2019-03-16T17:28:14.759Z,99663.63
2019-03-16T17:30:41.796Z,99664.88
2019-03-16T17:33:08.553Z,99668.03
2019-03-16T17:35:35.918Z,99669.53
2019-03-16T17:38:02.919Z,99671.90
2019-03-16T17:40:29.949Z,99667.97
2019-03-16T17:42:56.749Z,99669.16
2019-03-16T17:45:24.724Z,99674.26
2019-03-16T17:47:51.622Z,99674.09
2019-03-16T17:50:18.775Z,99673.42
2019-03-16T17:52:45.540Z,99676.22
2019-03-16T17:55:14.999Z,99679.38
2019-03-16T17:57:45.079Z,99677.02
2019-03-16T18:00:13.458Z,99678.65
2019-03-16T18:02:50.485Z,99673.11
2019-03-16T18:05:11.323Z,99668.70
2019-03-16T18:07:38.134Z,99667.14
2019-03-16T18:10:08.099Z,99671.84
2019-03-16T18:13:33.788Z,99675.59
2019-03-16T18:16:01.339Z,99674.16
2019-03-16T18:19:25.884Z,99673.69
2019-03-16T18:21:53.655Z,99678.28
2019-03-16T18:24:22.398Z,99682.34
2019-03-16T18:26:51.072Z,99677.41
2019-03-16T18:29:18.617Z,99684.63
2019-03-16T18:31:49.540Z,99687.18
2019-03-16T18:34:23.149Z,99689.73
2019-03-16T18:36:58.592Z,99694.33
2019-03-16T18:39:35.324Z,99698.56
2019-03-16T18:42:05.821Z,99698.91
2019-03-16T18:44:41.617Z,99706.32
2019-03-16T18:47:16.542Z,99704.14
2019-03-16T18:49:47.775Z,99705.05
2019-03-16T18:52:15.129Z,99709.92
2019-03-16T18:55:38.509Z,99708.41
2019-03-16T18:58:05.769Z,99708.50
2019-03-16T19:00:32.930Z,99711.98
2019-03-16T19:02:59.540Z,99717.97
2019-03-16T19:05:26.397Z,99717.58
2019-03-16T19:07:53.353Z,99721.97
2019-03-16T19:11:35.044Z,99726.60
2019-03-16T19:14:01.715Z,99722.63
2019-03-16T19:16:28.797Z,99725.52
2019-03-16T19:18:55.407Z,99728.42
2019-03-16T19:21:22.115Z,99732.31
2019-03-16T19:23:49.203Z,99730.12
2019-03-16T19:26:16.044Z,99733.39
2019-03-16T19:28:44.530Z,99729.88
2019-03-16T19:31:11.204Z,99726.86
2019-03-16T19:33:38.011Z,99722.74
2019-03-16T19:37:00.925Z,99727.25
2019-03-16T19:39:27.879Z,99734.92
2019-03-16T19:41:54.592Z,99734.82
2019-03-16T19:44:21.634Z,99731.89
2019-03-16T19:46:48.439Z,99725.42
2019-03-16T19:49:15.758Z,99723.62
2019-03-16T19:51:42.492Z,99722.55
2019-03-16T19:55:05.649Z,99720.36
2019-03-16T19:57:32.716Z,99726.64
2019-03-16T19:59:59.509Z,99722.51
2019-03-16T20:02:26.287Z,99722.52
2019-03-16T20:04:52.914Z,99724.04
2019-03-16T20:07:22.896Z,99724.41
2019-03-16T20:09:48.604Z,99717.34
2019-03-16T20:12:15.555Z,99718.14
2019-03-16T20:14:42.529Z,99717.95
2019-03-16T20:17:09.619Z,99715.19
2019-03-16T20:19:36.285Z,99718.55
2019-03-16T20:22:03.359Z,99716.77
2019-03-16T20:24:29.963Z,99717.87
2019-03-16T20:26:56.763Z,99712.41
2019-03-16T20:29:23.589Z,99708.39
2019-03-16T20:32:48.539Z,99713.42
2019-03-16T20:35:15.639Z,99705.50
2019-03-16T20:37:42.401Z,99713.27
2019-03-16T20:40:12.507Z,99714.23
2019-03-16T20:42:39.227Z,99715.74
2019-03-16T20:45:08.898Z,99716.24
2019-03-16T20:47:35.640Z,99719.89
2019-03-16T20:50:07.134Z,99726.18
2019-03-16T20:52:35.607Z,99720.41
2019-03-16T20:55:07.798Z,99726.99
2019-03-16T20:57:34.575Z,99725.00
2019-03-16T21:00:02.767Z,99728.52
2019-03-16T21:02:30.559Z,99726.53
2019-03-16T21:04:57.145Z,99731.80
2019-03-16T21:07:25.019Z,99729.97
2019-03-16T21:09:51.842Z,99733.49
2019-03-16T21:12:19.096Z,99727.56
2019-03-16T21:14:46.277Z,99728.86
2019-03-16T21:17:13.238Z,99736.39
2019-03-16T21:19:39.864Z,99744.62
2019-03-16T21:22:06.774Z,99750.11
2019-03-16T21:24:33.522Z,99745.20
2019-03-16T21:27:00.111Z,99745.62
2019-03-16T21:29:26.780Z,99750.57
2019-03-16T21:31:53.592Z,99753.66
2019-03-16T21:35:16.448Z,99744.73
2019-03-16T21:37:43.389Z,99751.97
2019-03-16T21:40:14.088Z,99754.72
2019-03-16T21:42:41.029Z,99762.93
2019-03-16T21:45:10.334Z,99756.92
2019-03-16T21:47:37.199Z,99766.27
2019-03-16T21:50:09.564Z,99761.70
2019-03-16T21:52:36.503Z,99756.61
2019-03-16T21:55:07.275Z,99756.57
2019-03-16T21:57:34.234Z,99764.55
2019-03-16T22:00:01.020Z,99773.77
2019-03-16T22:02:27.782Z,99786.34
2019-03-16T22:04:54.752Z,99791.59
2019-03-16T22:07:21.843Z,99793.73
2019-03-16T22:09:48.648Z,99786.94
2019-03-16T22:12:15.350Z,99787.56
2019-03-16T22:14:42.167Z,99786.21
2019-03-16T22:17:08.842Z,99781.99
2019-03-16T22:19:35.431Z,99788.36
2019-03-16T22:22:02.140Z,99781.23
2019-03-16T22:24:28.877Z,99795.13
2019-03-16T22:27:52.224Z,99789.18
2019-03-16T22:30:19.666Z,99791.31
2019-03-16T22:32:46.252Z,99788.23
2019-03-16T22:35:12.885Z,99786.61
2019-03-16T22:37:39.590Z,99793.03
2019-03-16T22:40:10.073Z,99788.57
2019-03-16T22:42:36.829Z,99787.58
2019-03-16T22:45:07.936Z,99786.28
2019-03-16T22:47:34.691Z,99788.03
2019-03-16T22:50:02.593Z,99789.57
2019-03-16T22:52:29.603Z,99785.03
2019-03-16T22:54:57.147Z,99782.41
2019-03-16T22:57:26.272Z,99785.92
2019-03-16T22:59:53.755Z,99775.78
2019-03-16T23:02:21.564Z,99767.80
2019-03-16T23:04:49.171Z,99767.98
2019-03-16T23:07:16.958Z,99770.42
2019-03-16T23:09:44.827Z,99769.39
2019-03-16T23:12:12.431Z,99761.73
2019-03-16T23:14:40.495Z,99768.91
2019-03-16T23:17:07.636Z,99773.22
2019-03-16T23:19:35.222Z,99777.31
2019-03-16T23:22:02.136Z,99781.59
2019-03-16T23:24:31.964Z,99777.11
2019-03-16T23:26:58.643Z,99775.66
2019-03-16T23:29:26.446Z,99778.77
2019-03-16T23:31:53.163Z,99775.64
2019-03-16T23:34:20.114Z,99779.02
2019-03-16T23:36:46.808Z,99775.61
2019-03-16T23:39:13.912Z,99778.45
2019-03-16T23:41:40.468Z,99773.81
2019-03-16T23:44:07.087Z,99757.48
2019-03-16T23:46:33.813Z,99762.65
2019-03-16T23:49:00.421Z,99764.72
2019-03-16T23:51:27.035Z,99766.22
2019-03-16T23:53:53.618Z,99757.45
2019-03-16T23:56:20.398Z,99761.88
2019-03-16T23:58:47.093Z,99760.02
